sensor_id;sensor_type;location;lat;lon;timestamp;P1;durP1;ratioP1;P2;durP2;ratioP2
41739;SDS011;27422;52.444;13.300;2023-05-01T00:00:22;11.40;;;5.80;;
41739;SDS011;27422;52.444;13.300;2023-05-01T00:02:47;8.68;;;5.45;;
41739;SDS011;27422;52.444;13.300;2023-05-01T00:05:12;11.75;;;6.32;;
41739;SDS011;27422;52.444;13.300;2023-05-01T00:07:38;12.75;;;5.85;;
41739;SDS011;27422;52.444;13.300;2023-05-01T00:10:03;10.20;;;5.82;;
41739;SDS011;27422;52.444;13.300;2023-05-01T00:12:29;11.43;;;5.90;;
41739;SDS011;27422;52.444;13.300;2023-05-01T00:14:54;14.10;;;6.32;;
41739;SDS011;27422;52.444;13.300;2023-05-01T00:17:20;10.43;;;5.60;;
41739;SDS011;27422;52.444;13.300;2023-05-01T00:19:50;10.82;;;6.03;;
41739;SDS011;27422;52.444;13.300;2023-05-01T00:22:16;10.55;;;5.63;;
41739;SDS011;27422;52.444;13.300;2023-05-01T00:24:41;10.40;;;5.78;;
41739;SDS011;27422;52.444;13.300;2023-05-01T00:27:07;11.32;;;6.30;;
41739;SDS011;27422;52.444;13.300;2023-05-01T00:29:32;10.50;;;5.70;;
41739;SDS011;27422;52.444;13.300;2023-05-01T00:31:57;10.27;;;5.63;;
41739;SDS011;27422;52.444;13.300;2023-05-01T00:34:23;11.27;;;5.60;;
41739;SDS011;27422;52.444;13.300;2023-05-01T00:36:49;11.60;;;5.80;;
41739;SDS011;27422;52.444;13.300;2023-05-01T00:39:14;11.23;;;5.97;;
41739;SDS011;27422;52.444;13.300;2023-05-01T00:41:40;11.60;;;5.88;;
41739;SDS011;27422;52.444;13.300;2023-05-01T00:44:05;11.15;;;5.82;;
41739;SDS011;27422;52.444;13.300;2023-05-01T00:46:31;12.20;;;5.82;;
41739;SDS011;27422;52.444;13.300;2023-05-01T00:48:58;11.30;;;5.93;;
41739;SDS011;27422;52.444;13.300;2023-05-01T00:51:23;10.02;;;5.60;;
41739;SDS011;27422;52.444;13.300;2023-05-01T00:53:51;11.57;;;5.90;;
41739;SDS011;27422;52.444;13.300;2023-05-01T00:56:16;10.60;;;5.88;;
41739;SDS011;27422;52.444;13.300;2023-05-01T00:58:42;11.18;;;5.78;;
41739;SDS011;27422;52.444;13.300;2023-05-01T01:01:10;11.05;;;5.47;;
41739;SDS011;27422;52.444;13.300;2023-05-01T01:03:36;8.98;;;5.65;;
41739;SDS011;27422;52.444;13.300;2023-05-01T01:11:30;10.20;;;5.68;;
41739;SDS011;27422;52.444;13.300;2023-05-01T01:16:30;8.73;;;5.30;;
41739;SDS011;27422;52.444;13.300;2023-05-01T01:21:35;10.80;;;5.82;;
41739;SDS011;27422;52.444;13.300;2023-05-01T01:24:17;13.32;;;5.80;;
41739;SDS011;27422;52.444;13.300;2023-05-01T01:29:52;9.68;;;5.65;;
41739;SDS011;27422;52.444;13.300;2023-05-01T01:32:32;11.30;;;5.43;;
41739;SDS011;27422;52.444;13.300;2023-05-01T01:35:09;8.27;;;5.45;;
41739;SDS011;27422;52.444;13.300;2023-05-01T01:37:49;11.55;;;5.78;;
41739;SDS011;27422;52.444;13.300;2023-05-01T01:40:18;11.93;;;5.57;;
41739;SDS011;27422;52.444;13.300;2023-05-01T01:42:57;9.13;;;5.47;;
41739;SDS011;27422;52.444;13.300;2023-05-01T01:45:29;12.10;;;5.93;;
41739;SDS011;27422;52.444;13.300;2023-05-01T01:48:01;10.07;;;5.60;;
41739;SDS011;27422;52.444;13.300;2023-05-01T01:50:27;11.70;;;5.57;;
41739;SDS011;27422;52.444;13.300;2023-05-01T01:52:53;10.98;;;5.60;;
41739;SDS011;27422;52.444;13.300;2023-05-01T01:55:22;9.48;;;5.30;;
41739;SDS011;27422;52.444;13.300;2023-05-01T01:57:51;10.02;;;5.25;;
41739;SDS011;27422;52.444;13.300;2023-05-01T02:00:17;8.90;;;4.88;;
41739;SDS011;27422;52.444;13.300;2023-05-01T02:02:43;10.60;;;4.63;;
41739;SDS011;27422;52.444;13.300;2023-05-01T02:05:10;10.27;;;5.70;;
41739;SDS011;27422;52.444;13.300;2023-05-01T02:07:38;9.88;;;5.53;;
41739;SDS011;27422;52.444;13.300;2023-05-01T02:10:05;11.55;;;5.88;;
41739;SDS011;27422;52.444;13.300;2023-05-01T02:12:35;10.32;;;5.05;;
41739;SDS011;27422;52.444;13.300;2023-05-01T02:15:01;9.32;;;5.03;;
41739;SDS011;27422;52.444;13.300;2023-05-01T02:17:27;12.38;;;5.15;;
41739;SDS011;27422;52.444;13.300;2023-05-01T02:19:54;11.63;;;5.22;;
41739;SDS011;27422;52.444;13.300;2023-05-01T02:22:21;14.60;;;6.18;;
41739;SDS011;27422;52.444;13.300;2023-05-01T02:24:47;11.05;;;6.10;;
41739;SDS011;27422;52.444;13.300;2023-05-01T02:27:16;10.25;;;5.40;;
41739;SDS011;27422;52.444;13.300;2023-05-01T02:30:04;10.27;;;5.80;;
41739;SDS011;27422;52.444;13.300;2023-05-01T02:32:30;10.20;;;6.00;;
41739;SDS011;27422;52.444;13.300;2023-05-01T02:34:56;12.13;;;5.70;;
41739;SDS011;27422;52.444;13.300;2023-05-01T02:37:21;12.18;;;5.72;;
41739;SDS011;27422;52.444;13.300;2023-05-01T02:39:47;11.27;;;5.90;;
41739;SDS011;27422;52.444;13.300;2023-05-01T02:42:12;11.07;;;5.97;;
41739;SDS011;27422;52.444;13.300;2023-05-01T02:45:01;11.02;;;5.35;;
41739;SDS011;27422;52.444;13.300;2023-05-01T02:47:28;10.65;;;5.68;;
41739;SDS011;27422;52.444;13.300;2023-05-01T02:49:54;11.15;;;5.93;;
41739;SDS011;27422;52.444;13.300;2023-05-01T02:52:20;10.13;;;5.82;;
41739;SDS011;27422;52.444;13.300;2023-05-01T02:54:46;11.00;;;5.63;;
41739;SDS011;27422;52.444;13.300;2023-05-01T02:57:12;12.23;;;6.13;;
41739;SDS011;27422;52.444;13.300;2023-05-01T02:59:38;10.18;;;5.28;;
41739;SDS011;27422;52.444;13.300;2023-05-01T03:02:04;10.97;;;5.80;;
41739;SDS011;27422;52.444;13.300;2023-05-01T03:04:31;10.85;;;6.07;;
41739;SDS011;27422;52.444;13.300;2023-05-01T03:06:56;9.75;;;5.55;;
41739;SDS011;27422;52.444;13.300;2023-05-01T03:09:22;12.48;;;6.20;;
41739;SDS011;27422;52.444;13.300;2023-05-01T03:11:47;10.68;;;6.40;;
41739;SDS011;27422;52.444;13.300;2023-05-01T03:14:13;10.07;;;5.65;;
41739;SDS011;27422;52.444;13.300;2023-05-01T03:16:38;13.13;;;5.97;;
41739;SDS011;27422;52.444;13.300;2023-05-01T03:19:04;9.82;;;5.22;;
41739;SDS011;27422;52.444;13.300;2023-05-01T03:21:30;11.43;;;5.78;;
41739;SDS011;27422;52.444;13.300;2023-05-01T03:23:56;11.50;;;5.88;;
41739;SDS011;27422;52.444;13.300;2023-05-01T03:26:21;11.82;;;5.50;;
41739;SDS011;27422;52.444;13.300;2023-05-01T03:28:46;9.80;;;5.07;;
41739;SDS011;27422;52.444;13.300;2023-05-01T03:31:12;12.30;;;5.60;;
41739;SDS011;27422;52.444;13.300;2023-05-01T03:33:38;10.05;;;5.45;;
41739;SDS011;27422;52.444;13.300;2023-05-01T03:36:04;9.82;;;5.05;;
41739;SDS011;27422;52.444;13.300;2023-05-01T03:38:30;10.15;;;5.63;;
41739;SDS011;27422;52.444;13.300;2023-05-01T03:40:56;11.65;;;5.43;;
41739;SDS011;27422;52.444;13.300;2023-05-01T03:43:22;11.85;;;5.25;;
41739;SDS011;27422;52.444;13.300;2023-05-01T03:45:48;10.80;;;5.78;;
41739;SDS011;27422;52.444;13.300;2023-05-01T03:48:14;9.73;;;5.13;;
41739;SDS011;27422;52.444;13.300;2023-05-01T03:50:39;9.57;;;5.18;;
41739;SDS011;27422;52.444;13.300;2023-05-01T03:53:04;8.40;;;4.68;;
41739;SDS011;27422;52.444;13.300;2023-05-01T03:55:30;11.05;;;5.05;;
41739;SDS011;27422;52.444;13.300;2023-05-01T03:57:55;9.15;;;4.72;;
41739;SDS011;27422;52.444;13.300;2023-05-01T04:00:21;10.52;;;5.20;;
41739;SDS011;27422;52.444;13.300;2023-05-01T04:02:46;9.50;;;5.13;;
41739;SDS011;27422;52.444;13.300;2023-05-01T04:05:12;11.40;;;5.63;;
41739;SDS011;27422;52.444;13.300;2023-05-01T04:07:38;8.13;;;4.80;;
41739;SDS011;27422;52.444;13.300;2023-05-01T04:10:04;9.30;;;4.97;;
41739;SDS011;27422;52.444;13.300;2023-05-01T04:12:31;10.85;;;5.18;;
41739;SDS011;27422;52.444;13.300;2023-05-01T04:14:56;11.85;;;5.03;;
41739;SDS011;27422;52.444;13.300;2023-05-01T04:17:21;9.48;;;4.75;;
41739;SDS011;27422;52.444;13.300;2023-05-01T04:19:47;8.60;;;4.43;;
41739;SDS011;27422;52.444;13.300;2023-05-01T04:22:13;8.98;;;4.32;;
41739;SDS011;27422;52.444;13.300;2023-05-01T04:24:38;11.30;;;4.35;;
41739;SDS011;27422;52.444;13.300;2023-05-01T04:27:04;9.30;;;4.93;;
41739;SDS011;27422;52.444;13.300;2023-05-01T04:29:30;10.63;;;4.35;;
41739;SDS011;27422;52.444;13.300;2023-05-01T04:31:55;7.18;;;4.15;;
41739;SDS011;27422;52.444;13.300;2023-05-01T04:34:21;10.77;;;4.50;;
41739;SDS011;27422;52.444;13.300;2023-05-01T04:36:46;9.27;;;4.22;;
41739;SDS011;27422;52.444;13.300;2023-05-01T04:39:12;6.88;;;3.83;;
41739;SDS011;27422;52.444;13.300;2023-05-01T04:41:37;9.27;;;4.68;;
41739;SDS011;27422;52.444;13.300;2023-05-01T04:44:03;9.18;;;3.80;;
41739;SDS011;27422;52.444;13.300;2023-05-01T04:46:28;7.75;;;3.30;;
41739;SDS011;27422;52.444;13.300;2023-05-01T04:48:54;7.90;;;3.60;;
41739;SDS011;27422;52.444;13.300;2023-05-01T04:51:19;7.03;;;3.55;;
41739;SDS011;27422;52.444;13.300;2023-05-01T04:53:45;6.78;;;3.47;;
41739;SDS011;27422;52.444;13.300;2023-05-01T04:56:10;8.60;;;3.63;;
41739;SDS011;27422;52.444;13.300;2023-05-01T04:58:36;8.25;;;3.72;;
41739;SDS011;27422;52.444;13.300;2023-05-01T05:01:01;10.18;;;3.88;;
41739;SDS011;27422;52.444;13.300;2023-05-01T05:03:27;6.20;;;2.83;;
41739;SDS011;27422;52.444;13.300;2023-05-01T05:05:52;7.13;;;3.60;;
41739;SDS011;27422;52.444;13.300;2023-05-01T05:08:17;7.78;;;2.97;;
41739;SDS011;27422;52.444;13.300;2023-05-01T05:10:43;8.82;;;3.60;;
41739;SDS011;27422;52.444;13.300;2023-05-01T05:13:08;5.55;;;2.90;;
41739;SDS011;27422;52.444;13.300;2023-05-01T05:15:34;8.05;;;3.17;;
41739;SDS011;27422;52.444;13.300;2023-05-01T05:17:59;5.57;;;3.15;;
41739;SDS011;27422;52.444;13.300;2023-05-01T05:20:25;6.75;;;2.83;;
41739;SDS011;27422;52.444;13.300;2023-05-01T05:22:50;9.82;;;3.40;;
41739;SDS011;27422;52.444;13.300;2023-05-01T05:25:16;9.18;;;3.45;;
41739;SDS011;27422;52.444;13.300;2023-05-01T05:27:41;7.50;;;3.40;;
41739;SDS011;27422;52.444;13.300;2023-05-01T05:30:07;4.32;;;2.33;;
41739;SDS011;27422;52.444;13.300;2023-05-01T05:32:33;7.63;;;3.35;;
41739;SDS011;27422;52.444;13.300;2023-05-01T05:34:58;6.85;;;3.05;;
41739;SDS011;27422;52.444;13.300;2023-05-01T05:37:24;5.60;;;3.10;;
41739;SDS011;27422;52.444;13.300;2023-05-01T05:39:50;7.10;;;2.60;;
41739;SDS011;27422;52.444;13.300;2023-05-01T05:42:16;6.28;;;2.97;;
41739;SDS011;27422;52.444;13.300;2023-05-01T05:44:41;6.43;;;3.08;;
41739;SDS011;27422;52.444;13.300;2023-05-01T05:47:06;6.70;;;3.08;;
41739;SDS011;27422;52.444;13.300;2023-05-01T05:49:32;6.65;;;3.28;;
41739;SDS011;27422;52.444;13.300;2023-05-01T05:51:57;7.80;;;3.25;;
41739;SDS011;27422;52.444;13.300;2023-05-01T05:54:22;6.47;;;3.10;;
41739;SDS011;27422;52.444;13.300;2023-05-01T05:56:48;6.35;;;2.75;;
41739;SDS011;27422;52.444;13.300;2023-05-01T05:59:13;8.52;;;2.85;;
41739;SDS011;27422;52.444;13.300;2023-05-01T06:01:39;5.18;;;2.78;;
41739;SDS011;27422;52.444;13.300;2023-05-01T06:04:04;7.38;;;2.65;;
41739;SDS011;27422;52.444;13.300;2023-05-01T06:06:31;7.47;;;2.90;;
41739;SDS011;27422;52.444;13.300;2023-05-01T06:08:56;6.85;;;2.97;;
41739;SDS011;27422;52.444;13.300;2023-05-01T06:11:22;7.22;;;3.10;;
41739;SDS011;27422;52.444;13.300;2023-05-01T06:13:48;6.22;;;2.38;;
41739;SDS011;27422;52.444;13.300;2023-05-01T06:16:13;7.38;;;3.03;;
41739;SDS011;27422;52.444;13.300;2023-05-01T06:18:39;6.88;;;2.70;;
41739;SDS011;27422;52.444;13.300;2023-05-01T06:21:05;6.55;;;2.65;;
41739;SDS011;27422;52.444;13.300;2023-05-01T06:23:30;5.80;;;2.70;;
41739;SDS011;27422;52.444;13.300;2023-05-01T06:25:58;9.10;;;3.05;;
41739;SDS011;27422;52.444;13.300;2023-05-01T06:28:23;5.80;;;2.80;;
41739;SDS011;27422;52.444;13.300;2023-05-01T06:30:49;7.95;;;2.70;;
41739;SDS011;27422;52.444;13.300;2023-05-01T06:33:14;6.50;;;2.50;;
41739;SDS011;27422;52.444;13.300;2023-05-01T06:35:40;6.60;;;2.60;;
41739;SDS011;27422;52.444;13.300;2023-05-01T06:38:05;6.25;;;2.60;;
41739;SDS011;27422;52.444;13.300;2023-05-01T06:40:30;6.63;;;2.45;;
41739;SDS011;27422;52.444;13.300;2023-05-01T06:45:23;5.22;;;2.20;;
41739;SDS011;27422;52.444;13.300;2023-05-01T06:47:49;5.72;;;2.30;;
41739;SDS011;27422;52.444;13.300;2023-05-01T06:50:14;5.40;;;2.95;;
41739;SDS011;27422;52.444;13.300;2023-05-01T06:52:40;6.32;;;2.28;;
41739;SDS011;27422;52.444;13.300;2023-05-01T06:55:06;7.05;;;2.42;;
41739;SDS011;27422;52.444;13.300;2023-05-01T06:57:32;6.28;;;2.08;;
41739;SDS011;27422;52.444;13.300;2023-05-01T06:59:57;5.80;;;2.50;;
41739;SDS011;27422;52.444;13.300;2023-05-01T07:02:22;4.50;;;2.20;;
41739;SDS011;27422;52.444;13.300;2023-05-01T07:04:48;7.53;;;2.55;;
41739;SDS011;27422;52.444;13.300;2023-05-01T07:07:13;7.90;;;2.70;;
41739;SDS011;27422;52.444;13.300;2023-05-01T07:09:39;4.03;;;2.20;;
41739;SDS011;27422;52.444;13.300;2023-05-01T07:12:04;5.80;;;2.30;;
41739;SDS011;27422;52.444;13.300;2023-05-01T07:14:30;4.88;;;2.35;;
41739;SDS011;27422;52.444;13.300;2023-05-01T07:16:55;5.88;;;2.60;;
41739;SDS011;27422;52.444;13.300;2023-05-01T07:19:21;4.53;;;2.10;;
41739;SDS011;27422;52.444;13.300;2023-05-01T07:21:46;4.93;;;2.05;;
41739;SDS011;27422;52.444;13.300;2023-05-01T07:24:11;7.00;;;2.60;;
41739;SDS011;27422;52.444;13.300;2023-05-01T07:26:37;5.60;;;1.95;;
41739;SDS011;27422;52.444;13.300;2023-05-01T07:29:03;6.35;;;2.33;;
41739;SDS011;27422;52.444;13.300;2023-05-01T07:31:28;5.05;;;2.00;;
41739;SDS011;27422;52.444;13.300;2023-05-01T07:33:54;6.18;;;2.35;;
41739;SDS011;27422;52.444;13.300;2023-05-01T07:36:19;4.82;;;2.00;;
41739;SDS011;27422;52.444;13.300;2023-05-01T07:38:46;7.30;;;2.53;;
41739;SDS011;27422;52.444;13.300;2023-05-01T07:41:12;6.63;;;2.25;;
41739;SDS011;27422;52.444;13.300;2023-05-01T07:43:37;7.63;;;2.40;;
41739;SDS011;27422;52.444;13.300;2023-05-01T07:46:03;5.75;;;2.35;;
41739;SDS011;27422;52.444;13.300;2023-05-01T07:48:30;4.80;;;1.92;;
41739;SDS011;27422;52.444;13.300;2023-05-01T07:50:56;7.43;;;2.50;;
41739;SDS011;27422;52.444;13.300;2023-05-01T07:53:22;6.30;;;2.30;;
41739;SDS011;27422;52.444;13.300;2023-05-01T07:55:47;4.93;;;2.30;;
41739;SDS011;27422;52.444;13.300;2023-05-01T07:58:14;6.80;;;2.27;;
41739;SDS011;27422;52.444;13.300;2023-05-01T08:00:41;7.18;;;2.33;;
41739;SDS011;27422;52.444;13.300;2023-05-01T08:05:34;6.67;;;1.93;;
41739;SDS011;27422;52.444;13.300;2023-05-01T08:07:59;6.30;;;2.55;;
41739;SDS011;27422;52.444;13.300;2023-05-01T08:10:25;5.30;;;2.10;;
41739;SDS011;27422;52.444;13.300;2023-05-01T08:12:52;5.85;;;2.10;;
41739;SDS011;27422;52.444;13.300;2023-05-01T08:15:17;6.38;;;2.00;;
41739;SDS011;27422;52.444;13.300;2023-05-01T08:17:44;4.80;;;1.77;;
41739;SDS011;27422;52.444;13.300;2023-05-01T08:20:11;5.43;;;1.77;;
41739;SDS011;27422;52.444;13.300;2023-05-01T08:22:36;4.70;;;1.73;;
41739;SDS011;27422;52.444;13.300;2023-05-01T08:25:02;6.72;;;2.30;;
41739;SDS011;27422;52.444;13.300;2023-05-01T08:27:29;4.97;;;1.67;;
41739;SDS011;27422;52.444;13.300;2023-05-01T08:29:54;3.35;;;1.80;;
41739;SDS011;27422;52.444;13.300;2023-05-01T08:32:20;4.32;;;1.52;;
41739;SDS011;27422;52.444;13.300;2023-05-01T08:34:45;5.75;;;1.55;;
41739;SDS011;27422;52.444;13.300;2023-05-01T08:37:11;4.32;;;1.80;;
41739;SDS011;27422;52.444;13.300;2023-05-01T08:39:36;4.63;;;1.70;;
41739;SDS011;27422;52.444;13.300;2023-05-01T08:42:02;4.35;;;1.52;;
41739;SDS011;27422;52.444;13.300;2023-05-01T08:44:27;4.03;;;1.67;;
41739;SDS011;27422;52.444;13.300;2023-05-01T08:47:01;3.90;;;1.27;;
41739;SDS011;27422;52.444;13.300;2023-05-01T08:49:40;4.85;;;1.40;;
41739;SDS011;27422;52.444;13.300;2023-05-01T08:52:06;7.07;;;1.77;;
41739;SDS011;27422;52.444;13.300;2023-05-01T08:54:33;4.33;;;1.60;;
41739;SDS011;27422;52.444;13.300;2023-05-01T08:57:02;4.78;;;1.88;;
41739;SDS011;27422;52.444;13.300;2023-05-01T08:59:29;3.95;;;1.67;;
41739;SDS011;27422;52.444;13.300;2023-05-01T09:01:57;6.22;;;2.50;;
41739;SDS011;27422;52.444;13.300;2023-05-01T09:04:31;5.57;;;1.65;;
41739;SDS011;27422;52.444;13.300;2023-05-01T09:06:59;5.07;;;1.80;;
41739;SDS011;27422;52.444;13.300;2023-05-01T09:09:26;4.35;;;1.60;;
41739;SDS011;27422;52.444;13.300;2023-05-01T09:14:38;3.92;;;1.65;;
41739;SDS011;27422;52.444;13.300;2023-05-01T09:17:04;5.20;;;1.50;;
41739;SDS011;27422;52.444;13.300;2023-05-01T09:19:29;4.95;;;1.40;;
41739;SDS011;27422;52.444;13.300;2023-05-01T09:21:55;3.78;;;1.58;;
41739;SDS011;27422;52.444;13.300;2023-05-01T09:24:23;4.85;;;1.67;;
41739;SDS011;27422;52.444;13.300;2023-05-01T09:26:51;4.53;;;1.67;;
41739;SDS011;27422;52.444;13.300;2023-05-01T09:32:15;4.85;;;1.60;;
41739;SDS011;27422;52.444;13.300;2023-05-01T09:34:48;3.60;;;1.58;;
41739;SDS011;27422;52.444;13.300;2023-05-01T09:37:25;3.90;;;1.50;;
41739;SDS011;27422;52.444;13.300;2023-05-01T09:42:29;3.60;;;1.50;;
41739;SDS011;27422;52.444;13.300;2023-05-01T09:44:55;4.50;;;1.40;;
41739;SDS011;27422;52.444;13.300;2023-05-01T09:47:20;4.45;;;1.42;;
41739;SDS011;27422;52.444;13.300;2023-05-01T09:49:49;3.60;;;1.25;;
41739;SDS011;27422;52.444;13.300;2023-05-01T09:52:34;6.57;;;1.75;;
41739;SDS011;27422;52.444;13.300;2023-05-01T09:55:21;4.35;;;1.52;;
41739;SDS011;27422;52.444;13.300;2023-05-01T09:57:47;4.13;;;1.65;;
41739;SDS011;27422;52.444;13.300;2023-05-01T10:00:13;4.70;;;1.90;;
41739;SDS011;27422;52.444;13.300;2023-05-01T10:02:42;4.30;;;1.77;;
41739;SDS011;27422;52.444;13.300;2023-05-01T10:05:09;5.25;;;1.85;;
41739;SDS011;27422;52.444;13.300;2023-05-01T10:07:35;3.13;;;1.58;;
41739;SDS011;27422;52.444;13.300;2023-05-01T10:10:19;4.47;;;1.52;;
41739;SDS011;27422;52.444;13.300;2023-05-01T10:12:48;4.68;;;1.73;;
41739;SDS011;27422;52.444;13.300;2023-05-01T10:15:14;5.82;;;1.70;;
41739;SDS011;27422;52.444;13.300;2023-05-01T10:17:40;4.32;;;1.73;;
41739;SDS011;27422;52.444;13.300;2023-05-01T10:20:07;4.10;;;1.63;;
41739;SDS011;27422;52.444;13.300;2023-05-01T10:22:37;4.13;;;1.70;;
41739;SDS011;27422;52.444;13.300;2023-05-01T10:25:03;5.53;;;1.70;;
41739;SDS011;27422;52.444;13.300;2023-05-01T10:27:36;4.47;;;1.52;;
41739;SDS011;27422;52.444;13.300;2023-05-01T10:30:05;4.43;;;1.65;;
41739;SDS011;27422;52.444;13.300;2023-05-01T10:32:32;4.57;;;1.83;;
41739;SDS011;27422;52.444;13.300;2023-05-01T10:35:03;4.90;;;1.60;;
41739;SDS011;27422;52.444;13.300;2023-05-01T10:37:44;3.83;;;1.60;;
41739;SDS011;27422;52.444;13.300;2023-05-01T10:43:22;3.25;;;1.70;;
41739;SDS011;27422;52.444;13.300;2023-05-01T10:53:36;4.53;;;1.60;;
41739;SDS011;27422;52.444;13.300;2023-05-01T10:56:03;5.50;;;1.73;;
41739;SDS011;27422;52.444;13.300;2023-05-01T11:03:51;4.95;;;1.90;;
41739;SDS011;27422;52.444;13.300;2023-05-01T11:06:17;4.88;;;1.70;;
41739;SDS011;27422;52.444;13.300;2023-05-01T11:08:42;4.97;;;1.90;;
41739;SDS011;27422;52.444;13.300;2023-05-01T11:13:59;4.70;;;1.95;;
41739;SDS011;27422;52.444;13.300;2023-05-01T11:21:48;3.85;;;2.08;;
41739;SDS011;27422;52.444;13.300;2023-05-01T11:24:14;4.53;;;1.83;;
41739;SDS011;27422;52.444;13.300;2023-05-01T11:26:42;5.20;;;2.28;;
41739;SDS011;27422;52.444;13.300;2023-05-01T11:29:09;4.72;;;2.10;;
41739;SDS011;27422;52.444;13.300;2023-05-01T11:31:35;4.50;;;1.98;;
41739;SDS011;27422;52.444;13.300;2023-05-01T11:34:01;4.68;;;2.10;;
41739;SDS011;27422;52.444;13.300;2023-05-01T11:36:27;4.20;;;2.00;;
41739;SDS011;27422;52.444;13.300;2023-05-01T11:38:54;5.78;;;2.17;;
41739;SDS011;27422;52.444;13.300;2023-05-01T11:41:21;6.18;;;2.33;;
41739;SDS011;27422;52.444;13.300;2023-05-01T11:43:48;4.67;;;1.80;;
41739;SDS011;27422;52.444;13.300;2023-05-01T11:46:21;3.83;;;2.10;;
41739;SDS011;27422;52.444;13.300;2023-05-01T11:48:54;5.55;;;2.17;;
41739;SDS011;27422;52.444;13.300;2023-05-01T11:51:20;5.00;;;2.40;;
41739;SDS011;27422;52.444;13.300;2023-05-01T11:53:58;4.05;;;1.75;;
41739;SDS011;27422;52.444;13.300;2023-05-01T11:56:25;5.03;;;1.70;;
41739;SDS011;27422;52.444;13.300;2023-05-01T11:58:50;5.43;;;1.98;;
41739;SDS011;27422;52.444;13.300;2023-05-01T12:01:17;5.75;;;1.92;;
41739;SDS011;27422;52.444;13.300;2023-05-01T12:03:43;4.57;;;2.15;;
41739;SDS011;27422;52.444;13.300;2023-05-01T12:06:09;4.13;;;2.15;;
41739;SDS011;27422;52.444;13.300;2023-05-01T12:08:40;4.38;;;2.25;;
41739;SDS011;27422;52.444;13.300;2023-05-01T12:11:09;4.50;;;2.30;;
41739;SDS011;27422;52.444;13.300;2023-05-01T12:13:34;6.53;;;2.25;;
41739;SDS011;27422;52.444;13.300;2023-05-01T12:16:00;5.57;;;2.40;;
41739;SDS011;27422;52.444;13.300;2023-05-01T12:18:27;6.47;;;2.80;;
41739;SDS011;27422;52.444;13.300;2023-05-01T12:20:53;6.10;;;2.28;;
41739;SDS011;27422;52.444;13.300;2023-05-01T12:23:19;6.70;;;2.72;;
41739;SDS011;27422;52.444;13.300;2023-05-01T12:25:55;5.00;;;2.50;;
41739;SDS011;27422;52.444;13.300;2023-05-01T12:28:22;5.28;;;2.60;;
41739;SDS011;27422;52.444;13.300;2023-05-01T12:30:48;4.97;;;2.50;;
41739;SDS011;27422;52.444;13.300;2023-05-01T12:33:17;5.28;;;2.70;;
41739;SDS011;27422;52.444;13.300;2023-05-01T12:35:44;5.15;;;2.42;;
41739;SDS011;27422;52.444;13.300;2023-05-01T12:38:14;5.65;;;2.53;;
41739;SDS011;27422;52.444;13.300;2023-05-01T12:40:49;5.18;;;2.45;;
41739;SDS011;27422;52.444;13.300;2023-05-01T12:43:29;5.88;;;2.75;;
41739;SDS011;27422;52.444;13.300;2023-05-01T12:45:59;7.57;;;2.53;;
41739;SDS011;27422;52.444;13.300;2023-05-01T12:48:24;6.35;;;2.85;;
41739;SDS011;27422;52.444;13.300;2023-05-01T12:50:50;6.72;;;3.03;;
41739;SDS011;27422;52.444;13.300;2023-05-01T12:53:23;7.50;;;2.92;;
41739;SDS011;27422;52.444;13.300;2023-05-01T12:55:50;6.22;;;3.00;;
41739;SDS011;27422;52.444;13.300;2023-05-01T12:58:17;4.88;;;2.80;;
41739;SDS011;27422;52.444;13.300;2023-05-01T13:00:44;4.97;;;2.40;;
41739;SDS011;27422;52.444;13.300;2023-05-01T13:03:28;7.75;;;3.00;;
41739;SDS011;27422;52.444;13.300;2023-05-01T13:08:34;7.50;;;2.75;;
41739;SDS011;27422;52.444;13.300;2023-05-01T13:11:07;5.95;;;2.53;;
41739;SDS011;27422;52.444;13.300;2023-05-01T13:13:37;5.43;;;2.60;;
41739;SDS011;27422;52.444;13.300;2023-05-01T13:16:04;6.35;;;2.70;;
41739;SDS011;27422;52.444;13.300;2023-05-01T13:18:41;5.40;;;2.53;;
41739;SDS011;27422;52.444;13.300;2023-05-01T13:21:10;9.38;;;2.85;;
41739;SDS011;27422;52.444;13.300;2023-05-01T13:23:38;4.13;;;2.10;;
41739;SDS011;27422;52.444;13.300;2023-05-01T13:26:04;11.32;;;3.10;;
41739;SDS011;27422;52.444;13.300;2023-05-01T13:30:57;5.50;;;2.70;;
41739;SDS011;27422;52.444;13.300;2023-05-01T13:33:22;5.65;;;3.00;;
41739;SDS011;27422;52.444;13.300;2023-05-01T13:35:48;5.57;;;2.90;;
41739;SDS011;27422;52.444;13.300;2023-05-01T13:38:13;5.03;;;2.40;;
41739;SDS011;27422;52.444;13.300;2023-05-01T13:40:40;5.27;;;2.77;;
41739;SDS011;27422;52.444;13.300;2023-05-01T13:43:08;5.60;;;2.78;;
41739;SDS011;27422;52.444;13.300;2023-05-01T13:45:38;4.32;;;2.40;;
41739;SDS011;27422;52.444;13.300;2023-05-01T13:48:03;6.03;;;2.88;;
41739;SDS011;27422;52.444;13.300;2023-05-01T13:50:29;6.38;;;2.78;;
41739;SDS011;27422;52.444;13.300;2023-05-01T13:52:54;6.18;;;2.40;;
41739;SDS011;27422;52.444;13.300;2023-05-01T13:55:20;6.10;;;2.75;;
41739;SDS011;27422;52.444;13.300;2023-05-01T13:57:45;5.40;;;2.45;;
41739;SDS011;27422;52.444;13.300;2023-05-01T14:00:14;5.05;;;2.28;;
41739;SDS011;27422;52.444;13.300;2023-05-01T14:02:44;6.55;;;2.50;;
41739;SDS011;27422;52.444;13.300;2023-05-01T14:05:12;4.95;;;2.60;;
41739;SDS011;27422;52.444;13.300;2023-05-01T14:07:43;5.60;;;2.67;;
41739;SDS011;27422;52.444;13.300;2023-05-01T14:10:11;5.38;;;2.85;;
41739;SDS011;27422;52.444;13.300;2023-05-01T14:12:36;5.13;;;2.67;;
41739;SDS011;27422;52.444;13.300;2023-05-01T14:15:03;5.25;;;2.53;;
41739;SDS011;27422;52.444;13.300;2023-05-01T14:17:29;5.25;;;2.90;;
41739;SDS011;27422;52.444;13.300;2023-05-01T14:20:02;5.55;;;2.80;;
41739;SDS011;27422;52.444;13.300;2023-05-01T14:24:54;6.45;;;2.70;;
41739;SDS011;27422;52.444;13.300;2023-05-01T14:27:21;8.37;;;3.40;;
41739;SDS011;27422;52.444;13.300;2023-05-01T14:29:47;6.13;;;3.25;;
41739;SDS011;27422;52.444;13.300;2023-05-01T14:32:13;6.20;;;3.13;;
41739;SDS011;27422;52.444;13.300;2023-05-01T14:34:40;5.37;;;2.20;;
41739;SDS011;27422;52.444;13.300;2023-05-01T14:37:07;7.03;;;2.83;;
41739;SDS011;27422;52.444;13.300;2023-05-01T14:39:33;7.07;;;3.17;;
41739;SDS011;27422;52.444;13.300;2023-05-01T14:41:58;5.40;;;2.75;;
41739;SDS011;27422;52.444;13.300;2023-05-01T14:44:25;5.32;;;2.78;;
41739;SDS011;27422;52.444;13.300;2023-05-01T14:46:52;7.15;;;3.25;;
41739;SDS011;27422;52.444;13.300;2023-05-01T14:49:19;5.80;;;2.92;;
41739;SDS011;27422;52.444;13.300;2023-05-01T14:51:45;5.53;;;2.72;;
41739;SDS011;27422;52.444;13.300;2023-05-01T14:54:11;5.25;;;2.80;;
41739;SDS011;27422;52.444;13.300;2023-05-01T14:56:37;7.20;;;2.97;;
41739;SDS011;27422;52.444;13.300;2023-05-01T14:59:03;5.38;;;2.75;;
41739;SDS011;27422;52.444;13.300;2023-05-01T15:01:28;6.85;;;3.00;;
41739;SDS011;27422;52.444;13.300;2023-05-01T15:03:54;6.45;;;3.03;;
41739;SDS011;27422;52.444;13.300;2023-05-01T15:06:20;4.95;;;2.55;;
41739;SDS011;27422;52.444;13.300;2023-05-01T15:08:45;5.55;;;2.60;;
41739;SDS011;27422;52.444;13.300;2023-05-01T15:11:13;6.28;;;2.50;;
41739;SDS011;27422;52.444;13.300;2023-05-01T15:13:40;5.70;;;3.10;;
41739;SDS011;27422;52.444;13.300;2023-05-01T15:16:08;5.95;;;2.95;;
41739;SDS011;27422;52.444;13.300;2023-05-01T15:18:34;6.30;;;2.92;;
41739;SDS011;27422;52.444;13.300;2023-05-01T15:21:01;5.97;;;2.67;;
41739;SDS011;27422;52.444;13.300;2023-05-01T15:23:26;8.32;;;3.10;;
41739;SDS011;27422;52.444;13.300;2023-05-01T15:25:52;4.95;;;2.92;;
41739;SDS011;27422;52.444;13.300;2023-05-01T15:28:18;6.40;;;3.10;;